sensor_id;sensor_type;location;lat;lon;timestamp;pressure;altitude;pressure_sealevel;temperature;humidity
58473;BME280;44775;51.564;5.460;2023-04-23T00:00:32;100482.31;;;7.17;100.00
58473;BME280;44775;51.564;5.460;2023-04-23T00:02:57;100485.28;;;7.14;100.00
58473;BME280;44775;51.564;5.460;2023-04-23T00:05:26;100479.75;;;7.07;100.00
58473;BME280;44775;51.564;5.460;2023-04-23T00:07:52;100471.25;;;7.04;100.00
58473;BME280;44775;51.564;5.460;2023-04-23T00:10:17;100466.53;;;6.98;100.00
58473;BME280;44775;51.564;5.460;2023-04-23T00:12:43;100476.13;;;6.91;100.00
58473;BME280;44775;51.564;5.460;2023-04-23T00:15:08;100468.47;;;6.88;100.00
58473;BME280;44775;51.564;5.460;2023-04-23T00:17:34;100467.81;;;6.85;100.00
58473;BME280;44775;51.564;5.460;2023-04-23T00:19:59;100465.44;;;6.82;100.00
58473;BME280;44775;51.564;5.460;2023-04-23T00:22:24;100458.91;;;6.77;100.00
58473;BME280;44775;51.564;5.460;2023-04-23T00:24:49;100453.91;;;6.74;100.00
58473;BME280;44775;51.564;5.460;2023-04-23T00:27:15;100463.00;;;6.71;100.00
58473;BME280;44775;51.564;5.460;2023-04-23T00:29:42;100456.22;;;6.69;100.00
58473;BME280;44775;51.564;5.460;2023-04-23T00:32:07;100460.00;;;6.66;100.00
58473;BME280;44775;51.564;5.460;2023-04-23T00:34:32;100453.31;;;6.62;100.00
58473;BME280;44775;51.564;5.460;2023-04-23T00:36:58;100456.13;;;6.60;100.00
58473;BME280;44775;51.564;5.460;2023-04-23T00:39:23;100452.50;;;6.61;100.00
58473;BME280;44775;51.564;5.460;2023-04-23T00:41:48;100448.47;;;6.57;100.00
58473;BME280;44775;51.564;5.460;2023-04-23T00:44:13;100452.28;;;6.55;100.00
58473;BME280;44775;51.564;5.460;2023-04-23T00:46:39;100439.66;;;6.57;100.00
58473;BME280;44775;51.564;5.460;2023-04-23T00:49:04;100438.44;;;6.51;100.00
58473;BME280;44775;51.564;5.460;2023-04-23T00:51:29;100438.78;;;6.48;100.00
58473;BME280;44775;51.564;5.460;2023-04-23T00:53:56;100435.59;;;6.45;100.00
58473;BME280;44775;51.564;5.460;2023-04-23T00:56:21;100434.06;;;6.42;100.00
58473;BME280;44775;51.564;5.460;2023-04-23T00:58:48;100433.38;;;6.40;100.00
58473;BME280;44775;51.564;5.460;2023-04-23T01:01:13;100430.88;;;6.38;100.00
58473;BME280;44775;51.564;5.460;2023-04-23T01:03:39;100424.56;;;6.39;100.00
58473;BME280;44775;51.564;5.460;2023-04-23T01:06:04;100418.97;;;6.43;100.00
58473;BME280;44775;51.564;5.460;2023-04-23T01:08:30;100422.63;;;6.42;100.00
58473;BME280;44775;51.564;5.460;2023-04-23T01:10:56;100418.28;;;6.41;100.00
58473;BME280;44775;51.564;5.460;2023-04-23T01:13:21;100412.38;;;6.47;100.00
58473;BME280;44775;51.564;5.460;2023-04-23T01:15:47;100415.03;;;6.47;100.00
58473;BME280;44775;51.564;5.460;2023-04-23T01:18:12;100409.56;;;6.48;100.00
58473;BME280;44775;51.564;5.460;2023-04-23T01:20:38;100411.53;;;6.46;100.00
58473;BME280;44775;51.564;5.460;2023-04-23T01:23:04;100409.72;;;6.47;100.00
58473;BME280;44775;51.564;5.460;2023-04-23T01:25:29;100402.44;;;6.49;100.00
58473;BME280;44775;51.564;5.460;2023-04-23T01:27:55;100408.06;;;6.46;100.00
58473;BME280;44775;51.564;5.460;2023-04-23T01:30:21;100407.88;;;6.47;100.00
58473;BME280;44775;51.564;5.460;2023-04-23T01:32:46;100403.03;;;6.43;100.00
58473;BME280;44775;51.564;5.460;2023-04-23T01:35:12;100402.34;;;6.41;100.00
58473;BME280;44775;51.564;5.460;2023-04-23T01:37:37;100405.31;;;6.37;100.00
58473;BME280;44775;51.564;5.460;2023-04-23T01:40:03;100405.59;;;6.34;100.00
58473;BME280;44775;51.564;5.460;2023-04-23T01:42:29;100406.47;;;6.35;100.00
58473;BME280;44775;51.564;5.460;2023-04-23T01:44:54;100406.31;;;6.36;100.00
58473;BME280;44775;51.564;5.460;2023-04-23T01:47:19;100406.31;;;6.36;100.00
58473;BME280;44775;51.564;5.460;2023-04-23T01:49:45;100401.00;;;6.36;100.00
58473;BME280;44775;51.564;5.460;2023-04-23T01:52:10;100394.69;;;6.37;100.00
58473;BME280;44775;51.564;5.460;2023-04-23T01:54:35;100398.56;;;6.43;100.00
58473;BME280;44775;51.564;5.460;2023-04-23T01:57:00;100407.22;;;6.45;100.00
58473;BME280;44775;51.564;5.460;2023-04-23T01:59:26;100395.59;;;6.46;100.00
58473;BME280;44775;51.564;5.460;2023-04-23T02:01:52;100390.53;;;6.53;100.00
58473;BME280;44775;51.564;5.460;2023-04-23T02:04:17;100394.69;;;6.55;100.00
58473;BME280;44775;51.564;5.460;2023-04-23T02:06:43;100396.53;;;6.55;100.00
58473;BME280;44775;51.564;5.460;2023-04-23T02:09:09;100399.00;;;6.56;100.00
58473;BME280;44775;51.564;5.460;2023-04-23T02:11:35;100394.00;;;6.53;100.00
58473;BME280;44775;51.564;5.460;2023-04-23T02:14:01;100388.69;;;6.53;100.00
58473;BME280;44775;51.564;5.460;2023-04-23T02:16:26;100388.16;;;6.50;100.00
58473;BME280;44775;51.564;5.460;2023-04-23T02:18:52;100390.81;;;6.50;100.00
58473;BME280;44775;51.564;5.460;2023-04-23T02:21:17;100385.81;;;6.47;100.00
58473;BME280;44775;51.564;5.460;2023-04-23T02:23:43;100380.69;;;6.45;100.00
58473;BME280;44775;51.564;5.460;2023-04-23T02:26:08;100376.19;;;6.46;100.00
58473;BME280;44775;51.564;5.460;2023-04-23T02:28:33;100379.50;;;6.48;100.00
58473;BME280;44775;51.564;5.460;2023-04-23T02:30:58;100383.69;;;6.50;100.00
58473;BME280;44775;51.564;5.460;2023-04-23T02:33:23;100380.72;;;6.53;100.00
58473;BME280;44775;51.564;5.460;2023-04-23T02:35:49;100386.88;;;6.54;100.00
58473;BME280;44775;51.564;5.460;2023-04-23T02:38:15;100389.38;;;6.55;100.00
58473;BME280;44775;51.564;5.460;2023-04-23T02:40:40;100381.78;;;6.60;100.00
58473;BME280;44775;51.564;5.460;2023-04-23T02:43:05;100387.91;;;6.61;100.00
58473;BME280;44775;51.564;5.460;2023-04-23T02:45:31;100378.47;;;6.58;100.00
58473;BME280;44775;51.564;5.460;2023-04-23T02:47:56;100376.78;;;6.57;100.00
58473;BME280;44775;51.564;5.460;2023-04-23T02:50:21;100386.66;;;6.65;100.00
58473;BME280;44775;51.564;5.460;2023-04-23T02:52:47;100375.81;;;6.58;100.00
58473;BME280;44775;51.564;5.460;2023-04-23T02:55:13;100383.59;;;6.60;100.00
58473;BME280;44775;51.564;5.460;2023-04-23T02:57:39;100384.44;;;6.60;100.00
58473;BME280;44775;51.564;5.460;2023-04-23T03:00:05;100380.81;;;6.61;100.00
58473;BME280;44775;51.564;5.460;2023-04-23T03:02:31;100380.94;;;6.60;100.00
58473;BME280;44775;51.564;5.460;2023-04-23T03:04:56;100381.84;;;6.69;100.00
58473;BME280;44775;51.564;5.460;2023-04-23T03:07:21;100383.56;;;6.78;100.00
58473;BME280;44775;51.564;5.460;2023-04-23T03:09:48;100383.56;;;6.78;100.00
58473;BME280;44775;51.564;5.460;2023-04-23T03:12:13;100383.13;;;6.82;100.00
58473;BME280;44775;51.564;5.460;2023-04-23T03:14:39;100372.31;;;6.84;100.00
58473;BME280;44775;51.564;5.460;2023-04-23T03:17:04;100366.88;;;6.85;100.00
58473;BME280;44775;51.564;5.460;2023-04-23T03:19:30;100366.19;;;6.83;100.00
58473;BME280;44775;51.564;5.460;2023-04-23T03:21:55;100362.00;;;6.81;100.00
58473;BME280;44775;51.564;5.460;2023-04-23T03:24:20;100352.22;;;6.81;100.00
58473;BME280;44775;51.564;5.460;2023-04-23T03:26:46;100355.72;;;6.82;100.00
58473;BME280;44775;51.564;5.460;2023-04-23T03:29:11;100367.19;;;6.82;100.00
58473;BME280;44775;51.564;5.460;2023-04-23T03:31:37;100358.53;;;6.80;100.00
58473;BME280;44775;51.564;5.460;2023-04-23T03:34:02;100362.19;;;6.79;100.00
58473;BME280;44775;51.564;5.460;2023-04-23T03:36:27;100367.31;;;6.81;100.00
58473;BME280;44775;51.564;5.460;2023-04-23T03:38:53;100364.22;;;6.85;100.00
58473;BME280;44775;51.564;5.460;2023-04-23T03:41:18;100361.91;;;6.91;100.00
58473;BME280;44775;51.564;5.460;2023-04-23T03:43:43;100359.78;;;6.94;100.00
58473;BME280;44775;51.564;5.460;2023-04-23T03:46:08;100359.97;;;7.01;100.00
58473;BME280;44775;51.564;5.460;2023-04-23T03:48:33;100353.66;;;7.02;100.00
58473;BME280;44775;51.564;5.460;2023-04-23T03:50:59;100359.66;;;7.04;100.00
58473;BME280;44775;51.564;5.460;2023-04-23T03:53:24;100354.88;;;7.07;100.00
58473;BME280;44775;51.564;5.460;2023-04-23T03:55:49;100358.72;;;7.13;100.00
58473;BME280;44775;51.564;5.460;2023-04-23T03:58:14;100350.13;;;7.19;100.00
58473;BME280;44775;51.564;5.460;2023-04-23T04:00:40;100357.44;;;7.25;100.00
58473;BME280;44775;51.564;5.460;2023-04-23T04:03:05;100355.31;;;7.29;100.00
58473;BME280;44775;51.564;5.460;2023-04-23T04:05:32;100350.53;;;7.32;100.00
58473;BME280;44775;51.564;5.460;2023-04-23T04:07:57;100358.69;;;7.39;100.00
58473;BME280;44775;51.564;5.460;2023-04-23T04:10:22;100360.84;;;7.44;100.00
58473;BME280;44775;51.564;5.460;2023-04-23T04:12:47;100357.88;;;7.47;100.00
58473;BME280;44775;51.564;5.460;2023-04-23T04:15:13;100359.72;;;7.54;100.00
58473;BME280;44775;51.564;5.460;2023-04-23T04:17:38;100364.91;;;7.56;100.00
58473;BME280;44775;51.564;5.460;2023-04-23T04:20:03;100368.72;;;7.62;100.00
58473;BME280;44775;51.564;5.460;2023-04-23T04:22:30;100364.75;;;7.66;100.00
58473;BME280;44775;51.564;5.460;2023-04-23T04:24:56;100365.59;;;7.66;100.00
58473;BME280;44775;51.564;5.460;2023-04-23T04:27:21;100374.22;;;7.68;100.00
58473;BME280;44775;51.564;5.460;2023-04-23T04:29:46;100374.22;;;7.68;100.00
58473;BME280;44775;51.564;5.460;2023-04-23T04:32:12;100379.56;;;7.68;100.00
58473;BME280;44775;51.564;5.460;2023-04-23T04:34:38;100369.22;;;7.65;100.00
58473;BME280;44775;51.564;5.460;2023-04-23T04:37:03;100374.22;;;7.68;100.00
58473;BME280;44775;51.564;5.460;2023-04-23T04:39:28;100377.91;;;7.75;100.00
58473;BME280;44775;51.564;5.460;2023-04-23T04:41:54;100368.94;;;7.76;100.00
58473;BME280;44775;51.564;5.460;2023-04-23T04:44:21;100370.75;;;7.76;100.00
58473;BME280;44775;51.564;5.460;2023-04-23T04:46:46;100366.63;;;7.73;100.00
58473;BME280;44775;51.564;5.460;2023-04-23T04:49:12;100364.09;;;7.72;100.00
58473;BME280;44775;51.564;5.460;2023-04-23T04:51:38;100369.59;;;7.70;100.00
58473;BME280;44775;51.564;5.460;2023-04-23T04:54:03;100367.94;;;7.77;100.00
58473;BME280;44775;51.564;5.460;2023-04-23T04:56:29;100366.94;;;7.70;100.00
58473;BME280;44775;51.564;5.460;2023-04-23T04:58:54;100372.56;;;7.67;100.00
58473;BME280;44775;51.564;5.460;2023-04-23T05:01:20;100368.56;;;7.63;100.00
58473;BME280;44775;51.564;5.460;2023-04-23T05:03:48;100371.25;;;7.63;100.00
58473;BME280;44775;51.564;5.460;2023-04-23T05:06:13;100369.22;;;7.65;100.00
58473;BME280;44775;51.564;5.460;2023-04-23T05:08:38;100375.56;;;7.64;100.00
58473;BME280;44775;51.564;5.460;2023-04-23T05:11:04;100372.56;;;7.67;100.00
58473;BME280;44775;51.564;5.460;2023-04-23T05:13:29;100375.06;;;7.69;100.00
58473;BME280;44775;51.564;5.460;2023-04-23T05:15:54;100364.41;;;7.69;100.00
58473;BME280;44775;51.564;5.460;2023-04-23T05:18:19;100368.59;;;7.71;100.00
58473;BME280;44775;51.564;5.460;2023-04-23T05:20:45;100365.59;;;7.74;100.00
58473;BME280;44775;51.564;5.460;2023-04-23T05:23:10;100366.63;;;7.81;100.00
58473;BME280;44775;51.564;5.460;2023-04-23T05:25:35;100370.63;;;7.86;100.00
58473;BME280;44775;51.564;5.460;2023-04-23T05:28:00;100371.63;;;7.93;100.00
58473;BME280;44775;51.564;5.460;2023-04-23T05:30:26;100373.00;;;7.97;100.00
58473;BME280;44775;51.564;5.460;2023-04-23T05:32:51;100376.34;;;8.07;100.00
58473;BME280;44775;51.564;5.460;2023-04-23T05:35:17;100373.00;;;8.13;100.00
58473;BME280;44775;51.564;5.460;2023-04-23T05:37:42;100366.38;;;8.17;100.00
58473;BME280;44775;51.564;5.460;2023-04-23T05:40:07;100374.69;;;8.22;100.00
58473;BME280;44775;51.564;5.460;2023-04-23T05:42:33;100378.50;;;8.28;100.00
58473;BME280;44775;51.564;5.460;2023-04-23T05:44:58;100369.03;;;8.34;100.00
58473;BME280;44775;51.564;5.460;2023-04-23T05:47:24;100370.06;;;8.41;100.00
58473;BME280;44775;51.564;5.460;2023-04-23T05:49:49;100364.06;;;8.47;100.00
58473;BME280;44775;51.564;5.460;2023-04-23T05:52:14;100371.38;;;8.53;100.00
58473;BME280;44775;51.564;5.460;2023-04-23T05:54:40;100367.72;;;8.62;100.00
58473;BME280;44775;51.564;5.460;2023-04-23T05:57:05;100365.75;;;8.64;100.00
58473;BME280;44775;51.564;5.460;2023-04-23T05:59:32;100365.91;;;8.71;100.00
58473;BME280;44775;51.564;5.460;2023-04-23T06:01:57;100372.38;;;8.77;100.00
58473;BME280;44775;51.564;5.460;2023-04-23T06:04:23;100376.34;;;8.81;100.00
58473;BME280;44775;51.564;5.460;2023-04-23T06:06:48;100375.34;;;8.90;100.00
58473;BME280;44775;51.564;5.460;2023-04-23T06:09:13;100376.19;;;8.98;100.00
58473;BME280;44775;51.564;5.460;2023-04-23T06:11:39;100377.00;;;8.99;100.00
58473;BME280;44775;51.564;5.460;2023-04-23T06:14:04;100376.00;;;9.00;100.00
58473;BME280;44775;51.564;5.460;2023-04-23T06:16:30;100367.84;;;9.02;100.00
58473;BME280;44775;51.564;5.460;2023-04-23T06:18:55;100363.97;;;9.12;100.00
58473;BME280;44775;51.564;5.460;2023-04-23T06:21:20;100359.28;;;9.22;100.00
58473;BME280;44775;51.564;5.460;2023-04-23T06:23:46;100351.88;;;9.41;100.00
58473;BME280;44775;51.564;5.460;2023-04-23T06:26:11;100356.59;;;9.70;100.00
58473;BME280;44775;51.564;5.460;2023-04-23T06:28:36;100349.72;;;9.99;100.00
58473;BME280;44775;51.564;5.460;2023-04-23T06:31:03;100352.19;;;10.31;100.00
58473;BME280;44775;51.564;5.460;2023-04-23T06:33:29;100351.38;;;10.69;100.00
58473;BME280;44775;51.564;5.460;2023-04-23T06:35:54;100352.63;;;10.96;100.00
58473;BME280;44775;51.564;5.460;2023-04-23T06:38:19;100353.47;;;11.26;100.00
58473;BME280;44775;51.564;5.460;2023-04-23T06:40:46;100353.03;;;11.73;100.00
58473;BME280;44775;51.564;5.460;2023-04-23T06:43:12;100354.84;;;11.88;100.00
58473;BME280;44775;51.564;5.460;2023-04-23T06:45:38;100350.66;;;12.00;100.00
58473;BME280;44775;51.564;5.460;2023-04-23T06:48:04;100357.38;;;12.11;100.00
58473;BME280;44775;51.564;5.460;2023-04-23T06:50:29;100347.75;;;12.16;100.00
58473;BME280;44775;51.564;5.460;2023-04-23T06:52:55;100351.19;;;12.53;100.00
58473;BME280;44775;51.564;5.460;2023-04-23T06:55:20;100347.13;;;12.64;100.00
58473;BME280;44775;51.564;5.460;2023-04-23T06:57:46;100350.31;;;12.74;100.00
58473;BME280;44775;51.564;5.460;2023-04-23T07:00:11;100348.44;;;13.03;100.00
58473;BME280;44775;51.564;5.460;2023-04-23T07:02:36;100344.88;;;12.95;100.00
58473;BME280;44775;51.564;5.460;2023-04-23T07:05:02;100348.25;;;13.04;100.00
58473;BME280;44775;51.564;5.460;2023-04-23T07:07:27;100348.31;;;13.17;100.00
58473;BME280;44775;51.564;5.460;2023-04-23T07:09:52;100349.91;;;13.33;100.00
58473;BME280;44775;51.564;5.460;2023-04-23T07:12:18;100344.75;;;13.38;100.00
58473;BME280;44775;51.564;5.460;2023-04-23T07:14:43;100332.59;;;13.08;100.00
58473;BME280;44775;51.564;5.460;2023-04-23T07:17:08;100335.19;;;13.29;100.00
58473;BME280;44775;51.564;5.460;2023-04-23T07:19:35;100342.78;;;13.54;100.00
58473;BME280;44775;51.564;5.460;2023-04-23T07:22:00;100340.97;;;13.74;100.00
58473;BME280;44775;51.564;5.460;2023-04-23T07:24:25;100344.16;;;13.98;100.00
58473;BME280;44775;51.564;5.460;2023-04-23T07:26:50;100339.63;;;14.11;100.00
58473;BME280;44775;51.564;5.460;2023-04-23T07:29:16;100345.78;;;13.92;100.00
58473;BME280;44775;51.564;5.460;2023-04-23T07:31:41;100338.56;;;13.99;100.00
58473;BME280;44775;51.564;5.460;2023-04-23T07:34:06;100336.13;;;14.11;100.00
58473;BME280;44775;51.564;5.460;2023-04-23T07:36:31;100333.00;;;14.14;100.00
58473;BME280;44775;51.564;5.460;2023-04-23T07:38:57;100341.72;;;14.36;100.00
58473;BME280;44775;51.564;5.460;2023-04-23T07:41:23;100340.31;;;14.60;100.00
58473;BME280;44775;51.564;5.460;2023-04-23T07:43:48;100339.88;;;14.70;100.00
58473;BME280;44775;51.564;5.460;2023-04-23T07:46:14;100339.88;;;14.70;98.94
58473;BME280;44775;51.564;5.460;2023-04-23T07:48:39;100322.91;;;14.82;100.00
58473;BME280;44775;51.564;5.460;2023-04-23T07:51:04;100329.09;;;15.03;100.00
58473;BME280;44775;51.564;5.460;2023-04-23T07:53:30;100334.69;;;14.81;98.66
58473;BME280;44775;51.564;5.460;2023-04-23T07:55:55;100334.06;;;14.99;99.26
58473;BME280;44775;51.564;5.460;2023-04-23T07:58:21;100327.53;;;15.33;100.00
58473;BME280;44775;51.564;5.460;2023-04-23T08:00:46;100338.50;;;15.39;99.07
58473;BME280;44775;51.564;5.460;2023-04-23T08:03:11;100317.16;;;15.44;100.00
58473;BME280;44775;51.564;5.460;2023-04-23T08:05:37;100324.25;;;15.83;99.55
58473;BME280;44775;51.564;5.460;2023-04-23T08:08:03;100328.47;;;16.04;95.16
58473;BME280;44775;51.564;5.460;2023-04-23T08:10:28;100324.50;;;16.13;90.33
58473;BME280;44775;51.564;5.460;2023-04-23T08:12:53;100320.81;;;16.01;94.43
58473;BME280;44775;51.564;5.460;2023-04-23T08:15:18;100320.31;;;16.17;95.57
58473;BME280;44775;51.564;5.460;2023-04-23T08:17:43;100319.25;;;16.18;88.09
58473;BME280;44775;51.564;5.460;2023-04-23T08:20:09;100326.00;;;16.02;87.09
58473;BME280;44775;51.564;5.460;2023-04-23T08:22:34;100317.94;;;16.27;89.93
58473;BME280;44775;51.564;5.460;2023-04-23T08:24:59;100319.72;;;16.65;86.38
58473;BME280;44775;51.564;5.460;2023-04-23T08:27:24;100308.97;;;16.84;88.99
58473;BME280;44775;51.564;5.460;2023-04-23T08:29:50;100314.81;;;16.81;81.36
58473;BME280;44775;51.564;5.460;2023-04-23T08:32:15;100309.97;;;16.89;87.03
58473;BME280;44775;51.564;5.460;2023-04-23T08:34:40;100302.53;;;16.85;84.61
58473;BME280;44775;51.564;5.460;2023-04-23T08:37:06;100295.81;;;17.12;90.79
58473;BME280;44775;51.564;5.460;2023-04-23T08:39:32;100303.44;;;17.52;90.58
58473;BME280;44775;51.564;5.460;2023-04-23T08:41:58;100311.75;;;17.99;83.12
58473;BME280;44775;51.564;5.460;2023-04-23T08:44:26;100303.34;;;18.19;83.02
58473;BME280;44775;51.564;5.460;2023-04-23T08:46:52;100305.59;;;18.34;78.82
58473;BME280;44775;51.564;5.460;2023-04-23T08:49:18;100308.53;;;18.21;80.99
58473;BME280;44775;51.564;5.460;2023-04-23T08:51:48;100309.06;;;18.11;81.70
58473;BME280;44775;51.564;5.460;2023-04-23T08:54:14;100297.94;;;18.31;78.74
58473;BME280;44775;51.564;5.460;2023-04-23T08:56:39;100304.69;;;18.40;74.52
58473;BME280;44775;51.564;5.460;2023-04-23T08:59:05;100301.22;;;18.09;74.46
58473;BME280;44775;51.564;5.460;2023-04-23T09:01:31;100298.91;;;18.36;80.22
58473;BME280;44775;51.564;5.460;2023-04-23T09:03:57;100309.97;;;18.58;71.32
58473;BME280;44775;51.564;5.460;2023-04-23T09:06:22;100306.47;;;18.70;72.23
58473;BME280;44775;51.564;5.460;2023-04-23T09:08:48;100307.06;;;18.72;72.00
58473;BME280;44775;51.564;5.460;2023-04-23T09:11:13;100306.22;;;18.71;66.48
58473;BME280;44775;51.564;5.460;2023-04-23T09:13:39;100301.72;;;18.41;72.93
58473;BME280;44775;51.564;5.460;2023-04-23T09:16:05;100299.94;;;18.24;67.08
58473;BME280;44775;51.564;5.460;2023-04-23T09:18:30;100302.50;;;18.18;68.20
58473;BME280;44775;51.564;5.460;2023-04-23T09:20:55;100307.34;;;18.16;66.49
58473;BME280;44775;51.564;5.460;2023-04-23T09:23:21;100301.94;;;17.38;66.96
58473;BME280;44775;51.564;5.460;2023-04-23T09:25:47;100297.50;;;17.92;71.86
58473;BME280;44775;51.564;5.460;2023-04-23T09:28:12;100300.91;;;17.87;70.49
58473;BME280;44775;51.564;5.460;2023-04-23T09:30:42;100292.91;;;18.23;70.52
58473;BME280;44775;51.564;5.460;2023-04-23T09:33:09;100294.22;;;18.67;66.85
58473;BME280;44775;51.564;5.460;2023-04-23T09:35:35;100289.53;;;18.86;62.54
58473;BME280;44775;51.564;5.460;2023-04-23T09:38:01;100290.47;;;18.92;63.09
58473;BME280;44775;51.564;5.460;2023-04-23T09:40:31;100295.03;;;19.03;60.18
58473;BME280;44775;51.564;5.460;2023-04-23T09:42:56;100287.28;;;18.71;57.10
58473;BME280;44775;51.564;5.460;2023-04-23T09:45:21;100287.41;;;18.88;59.92
58473;BME280;44775;51.564;5.460;2023-04-23T09:47:52;100286.91;;;18.56;55.58
58473;BME280;44775;51.564;5.460;2023-04-23T09:50:18;100278.66;;;18.39;62.91
58473;BME280;44775;51.564;5.460;2023-04-23T09:52:44;100278.56;;;18.93;58.80
58473;BME280;44775;51.564;5.460;2023-04-23T09:55:09;100278.72;;;18.74;57.06
58473;BME280;44775;51.564;5.460;2023-04-23T09:57:44;100281.25;;;18.69;54.33
58473;BME280;44775;51.564;5.460;2023-04-23T10:00:14;100277.13;;;18.20;59.14
58473;BME280;44775;51.564;5.460;2023-04-23T10:02:46;100271.97;;;17.88;58.13
58473;BME280;44775;51.564;5.460;2023-04-23T10:05:15;100266.34;;;17.59;61.33
58473;BME280;44775;51.564;5.460;2023-04-23T10:07:41;100263.66;;;17.71;62.26
58473;BME280;44775;51.564;5.460;2023-04-23T10:10:07;100264.13;;;17.86;59.22
58473;BME280;44775;51.564;5.460;2023-04-23T10:12:32;100275.50;;;17.88;61.84
58473;BME280;44775;51.564;5.460;2023-04-23T10:14:58;100265.34;;;17.72;61.01
58473;BME280;44775;51.564;5.460;2023-04-23T10:17:23;100259.13;;;18.13;60.12
58473;BME280;44775;51.564;5.460;2023-04-23T10:19:48;100270.94;;;17.89;60.53
58473;BME280;44775;51.564;5.460;2023-04-23T10:22:14;100260.09;;;17.77;61.78
58473;BME280;44775;51.564;5.460;2023-04-23T10:24:40;100256.72;;;17.93;58.59
58473;BME280;44775;51.564;5.460;2023-04-23T10:27:09;100257.50;;;18.12;59.83
58473;BME280;44775;51.564;5.460;2023-04-23T10:29:35;100258.31;;;18.48;60.74
58473;BME280;44775;51.564;5.460;2023-04-23T10:32:03;100265.97;;;18.86;61.75
58473;BME280;44775;51.564;5.460;2023-04-23T10:34:30;100261.94;;;19.13;59.25
58473;BME280;44775;51.564;5.460;2023-04-23T10:36:56;100250.75;;;19.21;57.66
58473;BME280;44775;51.564;5.460;2023-04-23T10:39:23;100245.25;;;18.92;58.36
58473;BME280;44775;51.564;5.460;2023-04-23T10:41:50;100260.09;;;18.90;60.95
58473;BME280;44775;51.564;5.460;2023-04-23T10:44:18;100244.94;;;18.77;59.97
58473;BME280;44775;51.564;5.460;2023-04-23T10:46:52;100240.91;;;18.56;60.09
58473;BME280;44775;51.564;5.460;2023-04-23T10:49:17;100246.09;;;18.57;62.56
58473;BME280;44775;51.564;5.460;2023-04-23T10:51:46;100233.50;;;18.28;60.98
58473;BME280;44775;51.564;5.460;2023-04-23T10:54:15;100231.25;;;18.25;61.15
58473;BME280;44775;51.564;5.460;2023-04-23T10:56:41;100223.59;;;17.98;60.73
58473;BME280;44775;51.564;5.460;2023-04-23T10:59:07;100228.44;;;18.20;61.06
58473;BME280;44775;51.564;5.460;2023-04-23T11:01:33;100217.63;;;18.20;61.89
58473;BME280;44775;51.564;5.460;2023-04-23T11:03:58;100222.31;;;18.59;60.10
58473;BME280;44775;51.564;5.460;2023-04-23T11:09:27;100218.78;;;18.71;58.59
58473;BME280;44775;51.564;5.460;2023-04-23T11:11:53;100213.63;;;18.81;60.27
58473;BME280;44775;51.564;5.460;2023-04-23T11:14:18;100212.16;;;19.02;59.74
58473;BME280;44775;51.564;5.460;2023-04-23T11:16:44;100202.22;;;18.67;58.94
58473;BME280;44775;51.564;5.460;2023-04-23T11:19:09;100207.53;;;18.50;60.46
58473;BME280;44775;51.564;5.460;2023-04-23T11:24:23;100201.16;;;18.56;61.46
58473;BME280;44775;51.564;5.460;2023-04-23T11:26:51;100209.75;;;18.53;56.10
58473;BME280;44775;51.564;5.460;2023-04-23T11:29:20;100179.53;;;18.21;57.76
58473;BME280;44775;51.564;5.460;2023-04-23T11:31:47;100174.00;;;17.92;59.49
58473;BME280;44775;51.564;5.460;2023-04-23T11:34:12;100180.56;;;18.08;59.30
58473;BME280;44775;51.564;5.460;2023-04-23T11:36:37;100167.13;;;17.78;60.57
58473;BME280;44775;51.564;5.460;2023-04-23T11:39:03;100164.84;;;17.63;60.33
58473;BME280;44775;51.564;5.460;2023-04-23T11:41:28;100155.19;;;17.98;59.79
58473;BME280;44775;51.564;5.460;2023-04-23T11:43:54;100147.91;;;17.86;60.21
58473;BME280;44775;51.564;5.460;2023-04-23T11:46:20;100154.56;;;17.72;61.35
58473;BME280;44775;51.564;5.460;2023-04-23T11:48:47;100155.19;;;18.09;59.08
58473;BME280;44775;51.564;5.460;2023-04-23T11:51:12;100149.56;;;18.23;59.11
58473;BME280;44775;51.564;5.460;2023-04-23T11:53:43;100152.38;;;17.92;58.89
58473;BME280;44775;51.564;5.460;2023-04-23T11:56:08;100149.09;;;17.60;59.14
58473;BME280;44775;51.564;5.460;2023-04-23T11:58:34;100133.97;;;17.71;59.79
58473;BME280;44775;51.564;5.460;2023-04-23T12:00:59;100139.91;;;17.91;57.66
58473;BME280;44775;51.564;5.460;2023-04-23T12:03:26;100136.25;;;18.33;59.70
58473;BME280;44775;51.564;5.460;2023-04-23T12:05:51;100123.16;;;18.77;59.61
58473;BME280;44775;51.564;5.460;2023-04-23T12:08:17;100118.41;;;19.13;54.35
58473;BME280;44775;51.564;5.460;2023-04-23T12:10:44;100107.81;;;19.11;57.60
58473;BME280;44775;51.564;5.460;2023-04-23T12:13:13;100107.59;;;19.29;58.79
58473;BME280;44775;51.564;5.460;2023-04-23T12:15:48;100098.22;;;19.66;54.61
58473;BME280;44775;51.564;5.460;2023-04-23T12:18:17;100094.88;;;19.97;53.74
58473;BME280;44775;51.564;5.460;2023-04-23T12:20:42;100099.94;;;19.72;51.51
58473;BME280;44775;51.564;5.460;2023-04-23T12:23:08;100095.38;;;19.61;52.20
58473;BME280;44775;51.564;5.460;2023-04-23T12:25:33;100096.06;;;19.51;52.52
58473;BME280;44775;51.564;5.460;2023-04-23T12:27:59;100094.22;;;19.40;52.17
58473;BME280;44775;51.564;5.460;2023-04-23T12:30:27;100087.22;;;19.27;52.13
58473;BME280;44775;51.564;5.460;2023-04-23T12:32:58;100083.59;;;19.04;51.04
58473;BME280;44775;51.564;5.460;2023-04-23T12:35:36;100075.84;;;18.96;52.56
58473;BME280;44775;51.564;5.460;2023-04-23T12:38:03;100073.50;;;18.59;53.72
58473;BME280;44775;51.564;5.460;2023-04-23T12:40:28;100062.03;;;18.40;54.36
58473;BME280;44775;51.564;5.460;2023-04-23T12:42:54;100057.34;;;18.36;54.88
58473;BME280;44775;51.564;5.460;2023-04-23T12:45:19;100056.38;;;18.42;54.66